sensor_id;sensor_type;location;lat;lon;timestamp;P1;durP1;ratioP1;P2;durP2;ratioP2
357;SDS011;167;47.558;7.602;2023-08-06T00:01:57;1.07;;;1.00;;
357;SDS011;167;47.558;7.602;2023-08-06T00:04:23;1.30;;;1.30;;
357;SDS011;167;47.558;7.602;2023-08-06T00:06:49;2.20;;;1.33;;
357;SDS011;167;47.558;7.602;2023-08-06T00:09:15;1.03;;;0.90;;
357;SDS011;167;47.558;7.602;2023-08-06T00:11:41;0.90;;;0.90;;
357;SDS011;167;47.558;7.602;2023-08-06T00:14:08;2.00;;;1.00;;
357;SDS011;167;47.558;7.602;2023-08-06T00:16:34;1.40;;;1.00;;
357;SDS011;167;47.558;7.602;2023-08-06T00:19:00;0.90;;;0.90;;
357;SDS011;167;47.558;7.602;2023-08-06T00:21:27;1.00;;;0.90;;
357;SDS011;167;47.558;7.602;2023-08-06T00:23:53;0.80;;;0.80;;
357;SDS011;167;47.558;7.602;2023-08-06T00:26:19;1.00;;;1.00;;
357;SDS011;167;47.558;7.602;2023-08-06T00:28:45;0.90;;;0.90;;
357;SDS011;167;47.558;7.602;2023-08-06T00:31:11;0.80;;;0.80;;
357;SDS011;167;47.558;7.602;2023-08-06T00:33:37;0.83;;;0.83;;
357;SDS011;167;47.558;7.602;2023-08-06T00:36:03;1.60;;;0.70;;
357;SDS011;167;47.558;7.602;2023-08-06T00:38:29;1.10;;;1.10;;
357;SDS011;167;47.558;7.602;2023-08-06T00:40:55;1.10;;;1.00;;
357;SDS011;167;47.558;7.602;2023-08-06T00:43:20;0.80;;;0.80;;
357;SDS011;167;47.558;7.602;2023-08-06T00:45:46;1.00;;;0.80;;
357;SDS011;167;47.558;7.602;2023-08-06T00:48:13;1.00;;;1.00;;
357;SDS011;167;47.558;7.602;2023-08-06T00:50:39;0.80;;;0.80;;
357;SDS011;167;47.558;7.602;2023-08-06T00:53:05;0.87;;;0.87;;
357;SDS011;167;47.558;7.602;2023-08-06T00:55:31;0.90;;;0.90;;
357;SDS011;167;47.558;7.602;2023-08-06T00:57:57;1.13;;;0.97;;
357;SDS011;167;47.558;7.602;2023-08-06T01:00:23;0.97;;;0.93;;
357;SDS011;167;47.558;7.602;2023-08-06T01:02:50;1.00;;;1.00;;
357;SDS011;167;47.558;7.602;2023-08-06T01:05:16;1.70;;;0.90;;
357;SDS011;167;47.558;7.602;2023-08-06T01:07:56;0.83;;;0.80;;
357;SDS011;167;47.558;7.602;2023-08-06T01:13:15;0.93;;;0.93;;
357;SDS011;167;47.558;7.602;2023-08-06T01:15:44;0.70;;;0.70;;
357;SDS011;167;47.558;7.602;2023-08-06T01:18:11;1.03;;;0.70;;
357;SDS011;167;47.558;7.602;2023-08-06T01:20:37;1.30;;;0.90;;
357;SDS011;167;47.558;7.602;2023-08-06T01:23:03;0.50;;;0.50;;
357;SDS011;167;47.558;7.602;2023-08-06T01:25:30;1.00;;;0.77;;
357;SDS011;167;47.558;7.602;2023-08-06T01:27:57;2.63;;;1.10;;
357;SDS011;167;47.558;7.602;2023-08-06T01:30:28;1.50;;;0.90;;
357;SDS011;167;47.558;7.602;2023-08-06T01:32:58;0.90;;;0.90;;
357;SDS011;167;47.558;7.602;2023-08-06T01:35:24;0.90;;;0.90;;
357;SDS011;167;47.558;7.602;2023-08-06T01:37:51;1.00;;;0.80;;
357;SDS011;167;47.558;7.602;2023-08-06T01:40:17;0.80;;;0.80;;
357;SDS011;167;47.558;7.602;2023-08-06T01:42:43;0.97;;;0.97;;
357;SDS011;167;47.558;7.602;2023-08-06T01:45:09;1.23;;;1.13;;
357;SDS011;167;47.558;7.602;2023-08-06T01:47:35;0.97;;;0.87;;
357;SDS011;167;47.558;7.602;2023-08-06T01:50:01;0.73;;;0.70;;
357;SDS011;167;47.558;7.602;2023-08-06T01:52:27;0.80;;;0.80;;
357;SDS011;167;47.558;7.602;2023-08-06T01:54:53;0.70;;;0.70;;
357;SDS011;167;47.558;7.602;2023-08-06T01:57:19;0.70;;;0.70;;
357;SDS011;167;47.558;7.602;2023-08-06T01:59:45;1.47;;;1.00;;
357;SDS011;167;47.558;7.602;2023-08-06T02:02:11;1.03;;;0.80;;
357;SDS011;167;47.558;7.602;2023-08-06T02:04:37;0.80;;;0.80;;
357;SDS011;167;47.558;7.602;2023-08-06T02:07:03;0.80;;;0.80;;
357;SDS011;167;47.558;7.602;2023-08-06T02:09:29;0.77;;;0.77;;
357;SDS011;167;47.558;7.602;2023-08-06T02:11:55;1.07;;;0.97;;
357;SDS011;167;47.558;7.602;2023-08-06T02:14:21;0.80;;;0.80;;
357;SDS011;167;47.558;7.602;2023-08-06T02:16:47;1.40;;;0.73;;
357;SDS011;167;47.558;7.602;2023-08-06T02:19:14;1.43;;;1.00;;
357;SDS011;167;47.558;7.602;2023-08-06T02:21:40;0.90;;;0.90;;
357;SDS011;167;47.558;7.602;2023-08-06T02:24:06;1.57;;;0.80;;
357;SDS011;167;47.558;7.602;2023-08-06T02:26:32;1.27;;;1.00;;
357;SDS011;167;47.558;7.602;2023-08-06T02:28:58;1.70;;;1.00;;
357;SDS011;167;47.558;7.602;2023-08-06T02:31:24;0.90;;;0.90;;
357;SDS011;167;47.558;7.602;2023-08-06T02:33:50;0.80;;;0.70;;
357;SDS011;167;47.558;7.602;2023-08-06T02:36:16;2.07;;;0.73;;
357;SDS011;167;47.558;7.602;2023-08-06T02:38:42;2.20;;;1.03;;
357;SDS011;167;47.558;7.602;2023-08-06T02:41:08;2.87;;;1.27;;
357;SDS011;167;47.558;7.602;2023-08-06T02:43:34;1.50;;;1.00;;
357;SDS011;167;47.558;7.602;2023-08-06T02:46:00;1.10;;;1.10;;
357;SDS011;167;47.558;7.602;2023-08-06T02:48:26;1.73;;;0.90;;
357;SDS011;167;47.558;7.602;2023-08-06T02:50:53;0.70;;;0.70;;
357;SDS011;167;47.558;7.602;2023-08-06T02:53:19;1.43;;;0.80;;
357;SDS011;167;47.558;7.602;2023-08-06T02:55:45;1.17;;;0.50;;
357;SDS011;167;47.558;7.602;2023-08-06T02:58:12;1.20;;;0.70;;
357;SDS011;167;47.558;7.602;2023-08-06T03:00:38;3.10;;;0.90;;
357;SDS011;167;47.558;7.602;2023-08-06T03:03:04;2.40;;;1.00;;
357;SDS011;167;47.558;7.602;2023-08-06T03:05:30;1.73;;;0.70;;
357;SDS011;167;47.558;7.602;2023-08-06T03:07:56;1.53;;;0.60;;
357;SDS011;167;47.558;7.602;2023-08-06T03:10:22;1.27;;;0.70;;
357;SDS011;167;47.558;7.602;2023-08-06T03:12:48;1.67;;;0.80;;
357;SDS011;167;47.558;7.602;2023-08-06T03:15:14;2.87;;;1.07;;
357;SDS011;167;47.558;7.602;2023-08-06T03:17:40;1.90;;;1.23;;
357;SDS011;167;47.558;7.602;2023-08-06T03:20:06;2.13;;;1.13;;
357;SDS011;167;47.558;7.602;2023-08-06T03:22:32;0.50;;;0.50;;
357;SDS011;167;47.558;7.602;2023-08-06T03:24:58;1.73;;;1.00;;
357;SDS011;167;47.558;7.602;2023-08-06T03:27:24;1.47;;;0.60;;
357;SDS011;167;47.558;7.602;2023-08-06T03:29:50;2.20;;;1.40;;
357;SDS011;167;47.558;7.602;2023-08-06T03:32:15;2.63;;;1.00;;
357;SDS011;167;47.558;7.602;2023-08-06T03:34:41;2.10;;;0.67;;
357;SDS011;167;47.558;7.602;2023-08-06T03:37:08;1.47;;;0.80;;
357;SDS011;167;47.558;7.602;2023-08-06T03:39:34;4.63;;;0.90;;
357;SDS011;167;47.558;7.602;2023-08-06T03:42:00;3.27;;;0.93;;
357;SDS011;167;47.558;7.602;2023-08-06T03:44:26;1.13;;;0.90;;
357;SDS011;167;47.558;7.602;2023-08-06T03:46:53;2.13;;;0.70;;
357;SDS011;167;47.558;7.602;2023-08-06T03:49:19;2.93;;;0.97;;
357;SDS011;167;47.558;7.602;2023-08-06T03:51:45;1.43;;;0.90;;
357;SDS011;167;47.558;7.602;2023-08-06T03:54:11;1.60;;;1.17;;
357;SDS011;167;47.558;7.602;2023-08-06T03:56:37;1.27;;;0.93;;
357;SDS011;167;47.558;7.602;2023-08-06T03:59:03;3.27;;;0.90;;
357;SDS011;167;47.558;7.602;2023-08-06T04:01:29;6.17;;;2.23;;
357;SDS011;167;47.558;7.602;2023-08-06T04:03:55;1.13;;;0.60;;
357;SDS011;167;47.558;7.602;2023-08-06T04:06:21;1.23;;;0.70;;
357;SDS011;167;47.558;7.602;2023-08-06T04:08:47;0.80;;;0.70;;
357;SDS011;167;47.558;7.602;2023-08-06T04:11:13;3.67;;;1.07;;
357;SDS011;167;47.558;7.602;2023-08-06T04:13:42;4.83;;;1.10;;
357;SDS011;167;47.558;7.602;2023-08-06T04:16:08;0.90;;;0.70;;
357;SDS011;167;47.558;7.602;2023-08-06T04:18:34;1.13;;;0.50;;
357;SDS011;167;47.558;7.602;2023-08-06T04:21:01;0.73;;;0.57;;
357;SDS011;167;47.558;7.602;2023-08-06T04:23:27;3.93;;;1.00;;
357;SDS011;167;47.558;7.602;2023-08-06T04:25:55;1.90;;;0.97;;
357;SDS011;167;47.558;7.602;2023-08-06T04:28:22;4.07;;;1.03;;
357;SDS011;167;47.558;7.602;2023-08-06T04:30:48;3.50;;;0.90;;
357;SDS011;167;47.558;7.602;2023-08-06T04:33:14;1.40;;;0.80;;
357;SDS011;167;47.558;7.602;2023-08-06T04:35:40;0.53;;;0.53;;
357;SDS011;167;47.558;7.602;2023-08-06T04:38:05;1.03;;;0.70;;
357;SDS011;167;47.558;7.602;2023-08-06T04:40:35;2.03;;;0.80;;
357;SDS011;167;47.558;7.602;2023-08-06T04:43:01;1.63;;;1.40;;
357;SDS011;167;47.558;7.602;2023-08-06T04:45:27;2.23;;;1.10;;
357;SDS011;167;47.558;7.602;2023-08-06T04:47:53;3.73;;;0.90;;
357;SDS011;167;47.558;7.602;2023-08-06T04:50:21;1.40;;;0.80;;
357;SDS011;167;47.558;7.602;2023-08-06T04:52:47;1.80;;;0.73;;
357;SDS011;167;47.558;7.602;2023-08-06T04:55:13;0.83;;;0.83;;
357;SDS011;167;47.558;7.602;2023-08-06T04:57:40;2.63;;;0.90;;
357;SDS011;167;47.558;7.602;2023-08-06T05:00:06;1.23;;;0.90;;
357;SDS011;167;47.558;7.602;2023-08-06T05:02:32;3.10;;;1.10;;
357;SDS011;167;47.558;7.602;2023-08-06T05:04:59;3.30;;;1.10;;
357;SDS011;167;47.558;7.602;2023-08-06T05:07:25;0.93;;;0.60;;
357;SDS011;167;47.558;7.602;2023-08-06T05:09:51;2.30;;;0.60;;
357;SDS011;167;47.558;7.602;2023-08-06T05:12:17;1.70;;;0.70;;
357;SDS011;167;47.558;7.602;2023-08-06T05:14:43;0.93;;;0.70;;
357;SDS011;167;47.558;7.602;2023-08-06T05:17:09;1.33;;;1.00;;
357;SDS011;167;47.558;7.602;2023-08-06T05:19:35;1.83;;;0.70;;
357;SDS011;167;47.558;7.602;2023-08-06T05:22:01;4.07;;;0.90;;
357;SDS011;167;47.558;7.602;2023-08-06T05:24:27;1.00;;;1.00;;
357;SDS011;167;47.558;7.602;2023-08-06T05:26:53;4.17;;;1.00;;
357;SDS011;167;47.558;7.602;2023-08-06T05:29:19;2.23;;;0.97;;
357;SDS011;167;47.558;7.602;2023-08-06T05:31:45;3.03;;;0.93;;
357;SDS011;167;47.558;7.602;2023-08-06T05:34:11;3.07;;;0.67;;
357;SDS011;167;47.558;7.602;2023-08-06T05:36:36;2.97;;;0.80;;
357;SDS011;167;47.558;7.602;2023-08-06T05:39:02;3.67;;;1.10;;
357;SDS011;167;47.558;7.602;2023-08-06T05:41:28;1.53;;;0.77;;
357;SDS011;167;47.558;7.602;2023-08-06T05:43:54;2.40;;;0.80;;
357;SDS011;167;47.558;7.602;2023-08-06T05:46:20;0.87;;;0.80;;
357;SDS011;167;47.558;7.602;2023-08-06T05:48:46;1.13;;;0.60;;
357;SDS011;167;47.558;7.602;2023-08-06T05:51:12;2.00;;;0.50;;
357;SDS011;167;47.558;7.602;2023-08-06T05:53:39;1.27;;;1.00;;
357;SDS011;167;47.558;7.602;2023-08-06T05:56:05;1.33;;;0.57;;
357;SDS011;167;47.558;7.602;2023-08-06T05:58:31;0.90;;;0.80;;
357;SDS011;167;47.558;7.602;2023-08-06T06:00:57;2.33;;;0.70;;
357;SDS011;167;47.558;7.602;2023-08-06T06:03:23;1.20;;;0.60;;
357;SDS011;167;47.558;7.602;2023-08-06T06:05:48;0.50;;;0.50;;
357;SDS011;167;47.558;7.602;2023-08-06T06:08:14;0.93;;;0.70;;
357;SDS011;167;47.558;7.602;2023-08-06T06:10:40;0.87;;;0.70;;
357;SDS011;167;47.558;7.602;2023-08-06T06:13:06;0.50;;;0.50;;
357;SDS011;167;47.558;7.602;2023-08-06T06:15:32;0.40;;;0.40;;
357;SDS011;167;47.558;7.602;2023-08-06T06:17:58;0.43;;;0.40;;
357;SDS011;167;47.558;7.602;2023-08-06T06:20:24;0.40;;;0.30;;
357;SDS011;167;47.558;7.602;2023-08-06T06:22:50;1.27;;;0.40;;
357;SDS011;167;47.558;7.602;2023-08-06T06:25:16;0.60;;;0.60;;
357;SDS011;167;47.558;7.602;2023-08-06T06:27:42;2.83;;;0.70;;
357;SDS011;167;47.558;7.602;2023-08-06T06:30:08;0.70;;;0.70;;
357;SDS011;167;47.558;7.602;2023-08-06T06:32:36;0.87;;;0.40;;
357;SDS011;167;47.558;7.602;2023-08-06T06:35:02;0.40;;;0.40;;
357;SDS011;167;47.558;7.602;2023-08-06T06:37:28;0.73;;;0.53;;
357;SDS011;167;47.558;7.602;2023-08-06T06:39:54;0.50;;;0.50;;
357;SDS011;167;47.558;7.602;2023-08-06T06:42:20;1.27;;;0.50;;
357;SDS011;167;47.558;7.602;2023-08-06T06:44:47;0.30;;;0.30;;
357;SDS011;167;47.558;7.602;2023-08-06T06:47:13;0.50;;;0.40;;
357;SDS011;167;47.558;7.602;2023-08-06T06:49:39;0.40;;;0.40;;
357;SDS011;167;47.558;7.602;2023-08-06T06:52:05;0.80;;;0.80;;
357;SDS011;167;47.558;7.602;2023-08-06T06:54:31;0.40;;;0.30;;
357;SDS011;167;47.558;7.602;2023-08-06T06:56:57;0.40;;;0.40;;
357;SDS011;167;47.558;7.602;2023-08-06T06:59:23;0.60;;;0.47;;
357;SDS011;167;47.558;7.602;2023-08-06T07:01:49;1.30;;;0.30;;
357;SDS011;167;47.558;7.602;2023-08-06T07:04:15;0.50;;;0.50;;
357;SDS011;167;47.558;7.602;2023-08-06T07:06:41;0.30;;;0.30;;
357;SDS011;167;47.558;7.602;2023-08-06T07:09:07;0.30;;;0.30;;
357;SDS011;167;47.558;7.602;2023-08-06T07:11:33;0.30;;;0.30;;
357;SDS011;167;47.558;7.602;2023-08-06T07:13:59;0.50;;;0.50;;
357;SDS011;167;47.558;7.602;2023-08-06T07:16:25;0.30;;;0.30;;
357;SDS011;167;47.558;7.602;2023-08-06T07:18:52;0.30;;;0.30;;
357;SDS011;167;47.558;7.602;2023-08-06T07:21:18;0.67;;;0.30;;
357;SDS011;167;47.558;7.602;2023-08-06T07:23:45;0.30;;;0.30;;
357;SDS011;167;47.558;7.602;2023-08-06T07:26:11;0.40;;;0.40;;
357;SDS011;167;47.558;7.602;2023-08-06T07:28:37;0.37;;;0.37;;
357;SDS011;167;47.558;7.602;2023-08-06T07:31:03;0.30;;;0.30;;
357;SDS011;167;47.558;7.602;2023-08-06T07:33:29;0.30;;;0.30;;
357;SDS011;167;47.558;7.602;2023-08-06T07:35:55;0.70;;;0.37;;
357;SDS011;167;47.558;7.602;2023-08-06T07:38:21;0.30;;;0.30;;
357;SDS011;167;47.558;7.602;2023-08-06T07:40:47;0.93;;;0.37;;
357;SDS011;167;47.558;7.602;2023-08-06T07:43:13;0.33;;;0.33;;
357;SDS011;167;47.558;7.602;2023-08-06T07:45:39;0.30;;;0.30;;
357;SDS011;167;47.558;7.602;2023-08-06T07:48:05;0.30;;;0.30;;
357;SDS011;167;47.558;7.602;2023-08-06T07:50:31;0.30;;;0.30;;
357;SDS011;167;47.558;7.602;2023-08-06T07:52:57;0.80;;;0.30;;
357;SDS011;167;47.558;7.602;2023-08-06T07:55:23;0.93;;;0.37;;
357;SDS011;167;47.558;7.602;2023-08-06T07:57:49;0.30;;;0.30;;
357;SDS011;167;47.558;7.602;2023-08-06T08:00:15;0.30;;;0.30;;
357;SDS011;167;47.558;7.602;2023-08-06T08:02:41;0.30;;;0.30;;
357;SDS011;167;47.558;7.602;2023-08-06T08:05:07;0.40;;;0.40;;
357;SDS011;167;47.558;7.602;2023-08-06T08:07:33;1.30;;;0.40;;
357;SDS011;167;47.558;7.602;2023-08-06T08:09:59;0.33;;;0.33;;
357;SDS011;167;47.558;7.602;2023-08-06T08:12:25;0.90;;;0.70;;
357;SDS011;167;47.558;7.602;2023-08-06T08:14:51;0.70;;;0.40;;
357;SDS011;167;47.558;7.602;2023-08-06T08:17:17;0.40;;;0.40;;
357;SDS011;167;47.558;7.602;2023-08-06T08:19:43;0.70;;;0.40;;
357;SDS011;167;47.558;7.602;2023-08-06T08:22:09;0.40;;;0.40;;
357;SDS011;167;47.558;7.602;2023-08-06T08:24:35;0.50;;;0.50;;
357;SDS011;167;47.558;7.602;2023-08-06T08:27:00;0.47;;;0.47;;
357;SDS011;167;47.558;7.602;2023-08-06T08:29:26;0.47;;;0.47;;
357;SDS011;167;47.558;7.602;2023-08-06T08:31:52;0.57;;;0.50;;
357;SDS011;167;47.558;7.602;2023-08-06T08:34:18;0.40;;;0.40;;
357;SDS011;167;47.558;7.602;2023-08-06T08:36:44;0.40;;;0.40;;
357;SDS011;167;47.558;7.602;2023-08-06T08:39:12;0.40;;;0.40;;
357;SDS011;167;47.558;7.602;2023-08-06T08:41:38;0.47;;;0.40;;
357;SDS011;167;47.558;7.602;2023-08-06T08:44:13;0.40;;;0.40;;
357;SDS011;167;47.558;7.602;2023-08-06T08:46:41;0.30;;;0.30;;
357;SDS011;167;47.558;7.602;2023-08-06T08:49:08;0.53;;;0.30;;
357;SDS011;167;47.558;7.602;2023-08-06T08:51:34;0.40;;;0.40;;
357;SDS011;167;47.558;7.602;2023-08-06T08:54:01;0.30;;;0.30;;
357;SDS011;167;47.558;7.602;2023-08-06T08:56:28;0.37;;;0.37;;
357;SDS011;167;47.558;7.602;2023-08-06T08:58:54;0.40;;;0.40;;
357;SDS011;167;47.558;7.602;2023-08-06T09:01:21;0.40;;;0.40;;
357;SDS011;167;47.558;7.602;2023-08-06T09:03:47;0.40;;;0.40;;
357;SDS011;167;47.558;7.602;2023-08-06T09:06:13;0.80;;;0.40;;
357;SDS011;167;47.558;7.602;2023-08-06T09:08:41;0.50;;;0.50;;
357;SDS011;167;47.558;7.602;2023-08-06T09:11:09;0.30;;;0.30;;
357;SDS011;167;47.558;7.602;2023-08-06T09:13:38;0.30;;;0.30;;
357;SDS011;167;47.558;7.602;2023-08-06T09:16:04;0.30;;;0.30;;
357;SDS011;167;47.558;7.602;2023-08-06T09:18:30;0.40;;;0.40;;
357;SDS011;167;47.558;7.602;2023-08-06T09:20:57;0.50;;;0.50;;
357;SDS011;167;47.558;7.602;2023-08-06T09:23:30;0.40;;;0.40;;
357;SDS011;167;47.558;7.602;2023-08-06T09:25:56;0.40;;;0.40;;
357;SDS011;167;47.558;7.602;2023-08-06T09:28:22;0.50;;;0.40;;
357;SDS011;167;47.558;7.602;2023-08-06T09:30:49;0.30;;;0.30;;
357;SDS011;167;47.558;7.602;2023-08-06T09:33:19;1.03;;;0.30;;
357;SDS011;167;47.558;7.602;2023-08-06T09:35:46;0.30;;;0.30;;
357;SDS011;167;47.558;7.602;2023-08-06T09:38:12;0.40;;;0.40;;
357;SDS011;167;47.558;7.602;2023-08-06T09:40:39;0.60;;;0.60;;
357;SDS011;167;47.558;7.602;2023-08-06T09:43:05;0.40;;;0.40;;
357;SDS011;167;47.558;7.602;2023-08-06T09:45:32;0.40;;;0.40;;
357;SDS011;167;47.558;7.602;2023-08-06T09:47:58;0.30;;;0.30;;
357;SDS011;167;47.558;7.602;2023-08-06T09:50:31;0.40;;;0.40;;
357;SDS011;167;47.558;7.602;2023-08-06T09:52:58;0.50;;;0.50;;
357;SDS011;167;47.558;7.602;2023-08-06T09:55:24;0.47;;;0.47;;
357;SDS011;167;47.558;7.602;2023-08-06T09:57:54;0.40;;;0.40;;
357;SDS011;167;47.558;7.602;2023-08-06T10:00:20;0.30;;;0.30;;
357;SDS011;167;47.558;7.602;2023-08-06T10:02:46;0.30;;;0.30;;
357;SDS011;167;47.558;7.602;2023-08-06T10:05:13;0.50;;;0.50;;
357;SDS011;167;47.558;7.602;2023-08-06T10:07:40;0.30;;;0.30;;
357;SDS011;167;47.558;7.602;2023-08-06T10:10:06;1.23;;;0.40;;
357;SDS011;167;47.558;7.602;2023-08-06T10:12:34;0.40;;;0.40;;
357;SDS011;167;47.558;7.602;2023-08-06T10:15:01;0.40;;;0.40;;
357;SDS011;167;47.558;7.602;2023-08-06T10:17:27;0.30;;;0.30;;
357;SDS011;167;47.558;7.602;2023-08-06T10:19:53;0.53;;;0.50;;
357;SDS011;167;47.558;7.602;2023-08-06T10:22:21;1.03;;;0.60;;
357;SDS011;167;47.558;7.602;2023-08-06T10:24:51;0.47;;;0.40;;
357;SDS011;167;47.558;7.602;2023-08-06T10:27:21;0.77;;;0.67;;
357;SDS011;167;47.558;7.602;2023-08-06T10:29:47;0.40;;;0.40;;
357;SDS011;167;47.558;7.602;2023-08-06T10:32:14;0.77;;;0.40;;
357;SDS011;167;47.558;7.602;2023-08-06T10:37:21;0.50;;;0.50;;
357;SDS011;167;47.558;7.602;2023-08-06T10:39:51;0.70;;;0.40;;
357;SDS011;167;47.558;7.602;2023-08-06T10:42:21;0.43;;;0.40;;
357;SDS011;167;47.558;7.602;2023-08-06T10:47:37;0.50;;;0.50;;
357;SDS011;167;47.558;7.602;2023-08-06T10:50:07;0.50;;;0.50;;
357;SDS011;167;47.558;7.602;2023-08-06T10:52:36;0.50;;;0.50;;
357;SDS011;167;47.558;7.602;2023-08-06T10:55:02;0.50;;;0.40;;
357;SDS011;167;47.558;7.602;2023-08-06T10:57:28;0.50;;;0.50;;
357;SDS011;167;47.558;7.602;2023-08-06T10:59:54;1.23;;;0.47;;
357;SDS011;167;47.558;7.602;2023-08-06T11:02:20;0.80;;;0.50;;
357;SDS011;167;47.558;7.602;2023-08-06T11:04:47;0.40;;;0.40;;
357;SDS011;167;47.558;7.602;2023-08-06T11:07:13;0.40;;;0.40;;
357;SDS011;167;47.558;7.602;2023-08-06T11:09:39;0.50;;;0.50;;
357;SDS011;167;47.558;7.602;2023-08-06T11:12:11;0.50;;;0.50;;
357;SDS011;167;47.558;7.602;2023-08-06T11:14:37;0.40;;;0.40;;
357;SDS011;167;47.558;7.602;2023-08-06T11:17:04;0.53;;;0.53;;
357;SDS011;167;47.558;7.602;2023-08-06T11:19:30;0.40;;;0.40;;
357;SDS011;167;47.558;7.602;2023-08-06T11:21:56;1.60;;;0.67;;
357;SDS011;167;47.558;7.602;2023-08-06T11:24:26;0.50;;;0.50;;
357;SDS011;167;47.558;7.602;2023-08-06T11:26:52;0.60;;;0.60;;
357;SDS011;167;47.558;7.602;2023-08-06T11:29:18;0.70;;;0.70;;
357;SDS011;167;47.558;7.602;2023-08-06T11:31:44;0.80;;;0.57;;
357;SDS011;167;47.558;7.602;2023-08-06T11:34:10;0.50;;;0.50;;
357;SDS011;167;47.558;7.602;2023-08-06T11:36:40;0.90;;;0.90;;
357;SDS011;167;47.558;7.602;2023-08-06T11:39:07;2.73;;;0.70;;
357;SDS011;167;47.558;7.602;2023-08-06T11:41:32;1.83;;;0.73;;
357;SDS011;167;47.558;7.602;2023-08-06T11:43:59;0.93;;;0.93;;
357;SDS011;167;47.558;7.602;2023-08-06T11:46:25;0.70;;;0.70;;
357;SDS011;167;47.558;7.602;2023-08-06T11:48:52;0.90;;;0.70;;
357;SDS011;167;47.558;7.602;2023-08-06T11:51:17;0.80;;;0.80;;
357;SDS011;167;47.558;7.602;2023-08-06T11:53:48;0.70;;;0.70;;
357;SDS011;167;47.558;7.602;2023-08-06T11:56:15;0.50;;;0.50;;
357;SDS011;167;47.558;7.602;2023-08-06T11:58:41;1.27;;;0.90;;
357;SDS011;167;47.558;7.602;2023-08-06T12:01:07;1.20;;;1.20;;
357;SDS011;167;47.558;7.602;2023-08-06T12:03:38;1.50;;;0.83;;
357;SDS011;167;47.558;7.602;2023-08-06T12:06:04;0.70;;;0.70;;
357;SDS011;167;47.558;7.602;2023-08-06T12:08:30;0.63;;;0.63;;
357;SDS011;167;47.558;7.602;2023-08-06T12:10:56;0.47;;;0.47;;
357;SDS011;167;47.558;7.602;2023-08-06T12:13:23;1.07;;;0.63;;
357;SDS011;167;47.558;7.602;2023-08-06T12:15:48;0.50;;;0.50;;
357;SDS011;167;47.558;7.602;2023-08-06T12:18:17;0.57;;;0.57;;
357;SDS011;167;47.558;7.602;2023-08-06T12:20:43;0.90;;;0.70;;
357;SDS011;167;47.558;7.602;2023-08-06T12:23:09;0.60;;;0.60;;
357;SDS011;167;47.558;7.602;2023-08-06T12:25:35;1.33;;;0.67;;
357;SDS011;167;47.558;7.602;2023-08-06T12:28:00;0.80;;;0.80;;
357;SDS011;167;47.558;7.602;2023-08-06T12:30:26;1.03;;;0.83;;
357;SDS011;167;47.558;7.602;2023-08-06T12:32:52;1.13;;;0.87;;
357;SDS011;167;47.558;7.602;2023-08-06T12:35:18;0.80;;;0.80;;
357;SDS011;167;47.558;7.602;2023-08-06T12:37:45;0.80;;;0.80;;
357;SDS011;167;47.558;7.602;2023-08-06T12:40:11;0.50;;;0.50;;
357;SDS011;167;47.558;7.602;2023-08-06T12:42:37;1.63;;;0.70;;
357;SDS011;167;47.558;7.602;2023-08-06T12:45:03;0.60;;;0.60;;
357;SDS011;167;47.558;7.602;2023-08-06T12:47:29;1.10;;;1.10;;
357;SDS011;167;47.558;7.602;2023-08-06T12:49:55;0.70;;;0.70;;
357;SDS011;167;47.558;7.602;2023-08-06T12:52:21;0.80;;;0.80;;
357;SDS011;167;47.558;7.602;2023-08-06T12:54:47;0.60;;;0.60;;
357;SDS011;167;47.558;7.602;2023-08-06T12:57:13;0.97;;;0.60;;
357;SDS011;167;47.558;7.602;2023-08-06T12:59:39;1.40;;;0.80;;
357;SDS011;167;47.558;7.602;2023-08-06T13:02:05;0.70;;;0.70;;
357;SDS011;167;47.558;7.602;2023-08-06T13:04:31;0.90;;;0.90;;
357;SDS011;167;47.558;7.602;2023-08-06T13:06:59;0.70;;;0.70;;
357;SDS011;167;47.558;7.602;2023-08-06T13:09:25;0.80;;;0.80;;
357;SDS011;167;47.558;7.602;2023-08-06T13:11:52;0.70;;;0.70;;
357;SDS011;167;47.558;7.602;2023-08-06T13:14:18;2.50;;;0.70;;
357;SDS011;167;47.558;7.602;2023-08-06T13:16:44;0.80;;;0.70;;
357;SDS011;167;47.558;7.602;2023-08-06T13:19:10;0.57;;;0.57;;
357;SDS011;167;47.558;7.602;2023-08-06T13:24:07;1.53;;;0.93;;
357;SDS011;167;47.558;7.602;2023-08-06T13:26:33;0.77;;;0.77;;
357;SDS011;167;47.558;7.602;2023-08-06T13:28:59;0.50;;;0.50;;
357;SDS011;167;47.558;7.602;2023-08-06T13:31:25;0.73;;;0.70;;
357;SDS011;167;47.558;7.602;2023-08-06T13:33:52;0.50;;;0.50;;
357;SDS011;167;47.558;7.602;2023-08-06T13:36:20;0.90;;;0.90;;
357;SDS011;167;47.558;7.602;2023-08-06T13:38:46;0.60;;;0.60;;
357;SDS011;167;47.558;7.602;2023-08-06T13:41:12;0.60;;;0.60;;
357;SDS011;167;47.558;7.602;2023-08-06T13:43:38;0.50;;;0.50;;
357;SDS011;167;47.558;7.602;2023-08-06T13:46:04;1.27;;;0.90;;
357;SDS011;167;47.558;7.602;2023-08-06T13:48:30;0.67;;;0.67;;
357;SDS011;167;47.558;7.602;2023-08-06T13:50:57;1.80;;;0.77;;
357;SDS011;167;47.558;7.602;2023-08-06T13:53:23;0.90;;;0.70;;
357;SDS011;167;47.558;7.602;2023-08-06T13:55:50;0.50;;;0.50;;
357;SDS011;167;47.558;7.602;2023-08-06T13:58:16;0.70;;;0.70;;
357;SDS011;167;47.558;7.602;2023-08-06T14:00:42;0.80;;;0.80;;
357;SDS011;167;47.558;7.602;2023-08-06T14:03:09;0.80;;;0.80;;
357;SDS011;167;47.558;7.602;2023-08-06T14:05:35;0.50;;;0.50;;
357;SDS011;167;47.558;7.602;2023-08-06T14:08:01;0.80;;;0.67;;
357;SDS011;167;47.558;7.602;2023-08-06T14:10:27;0.90;;;0.90;;
357;SDS011;167;47.558;7.602;2023-08-06T14:12:53;0.97;;;0.80;;
357;SDS011;167;47.558;7.602;2023-08-06T14:15:19;1.20;;;0.73;;
357;SDS011;167;47.558;7.602;2023-08-06T14:17:45;0.50;;;0.50;;
357;SDS011;167;47.558;7.602;2023-08-06T14:20:11;0.43;;;0.43;;
357;SDS011;167;47.558;7.602;2023-08-06T14:22:37;0.60;;;0.60;;
357;SDS011;167;47.558;7.602;2023-08-06T14:25:03;1.23;;;0.83;;
357;SDS011;167;47.558;7.602;2023-08-06T14:27:29;0.60;;;0.60;;
357;SDS011;167;47.558;7.602;2023-08-06T14:29:55;0.60;;;0.60;;
357;SDS011;167;47.558;7.602;2023-08-06T14:32:21;0.73;;;0.73;;
357;SDS011;167;47.558;7.602;2023-08-06T14:34:47;0.53;;;0.53;;
357;SDS011;167;47.558;7.602;2023-08-06T14:37:13;0.73;;;0.73;;
357;SDS011;167;47.558;7.602;2023-08-06T14:39:39;0.80;;;0.70;;
357;SDS011;167;47.558;7.602;2023-08-06T14:42:05;0.90;;;0.90;;
357;SDS011;167;47.558;7.602;2023-08-06T14:44:31;0.93;;;0.93;;
357;SDS011;167;47.558;7.602;2023-08-06T14:46:57;0.70;;;0.70;;
357;SDS011;167;47.558;7.602;2023-08-06T14:49:23;0.80;;;0.80;;
357;SDS011;167;47.558;7.602;2023-08-06T14:51:49;0.70;;;0.60;;
357;SDS011;167;47.558;7.602;2023-08-06T14:54:16;0.80;;;0.80;;
357;SDS011;167;47.558;7.602;2023-08-06T14:56:42;0.70;;;0.70;;
357;SDS011;167;47.558;7.602;2023-08-06T14:59:08;0.73;;;0.60;;
357;SDS011;167;47.558;7.602;2023-08-06T15:01:33;2.07;;;0.70;;
357;SDS011;167;47.558;7.602;2023-08-06T15:03:59;0.87;;;0.87;;
357;SDS011;167;47.558;7.602;2023-08-06T15:06:25;0.87;;;0.87;;
357;SDS011;167;47.558;7.602;2023-08-06T15:08:51;0.60;;;0.60;;
357;SDS011;167;47.558;7.602;2023-08-06T15:11:19;0.80;;;0.80;;
357;SDS011;167;47.558;7.602;2023-08-06T15:13:45;0.73;;;0.73;;
357;SDS011;167;47.558;7.602;2023-08-06T15:16:10;1.00;;;1.00;;
357;SDS011;167;47.558;7.602;2023-08-06T15:18:37;0.70;;;0.60;;
357;SDS011;167;47.558;7.602;2023-08-06T15:21:03;0.70;;;0.70;;
357;SDS011;167;47.558;7.602;2023-08-06T15:23:28;2.27;;;1.10;;
357;SDS011;167;47.558;7.602;2023-08-06T15:25:54;0.70;;;0.70;;
357;SDS011;167;47.558;7.602;2023-08-06T15:28:20;0.70;;;0.70;;
357;SDS011;167;47.558;7.602;2023-08-06T15:30:50;0.73;;;0.73;;
357;SDS011;167;47.558;7.602;2023-08-06T15:33:20;0.90;;;0.90;;
357;SDS011;167;47.558;7.602;2023-08-06T15:35:46;1.30;;;0.90;;
357;SDS011;167;47.558;7.602;2023-08-06T15:38:12;1.00;;;0.93;;
357;SDS011;167;47.558;7.602;2023-08-06T15:40:38;0.90;;;0.90;;
357;SDS011;167;47.558;7.602;2023-08-06T15:43:04;0.93;;;0.93;;
357;SDS011;167;47.558;7.602;2023-08-06T15:45:30;0.83;;;0.83;;
357;SDS011;167;47.558;7.602;2023-08-06T15:47:56;1.03;;;0.87;;
357;SDS011;167;47.558;7.602;2023-08-06T15:50:22;0.93;;;0.93;;